Meath Environmental Platform

Observations

Time Sensor AQI SAQ Temp °C Hum % Pres Pa CO μg/m³ H₂S μg/m³ NO μg/m³ NO₂ μg/m³ O₃ μg/m³ SO₂ μg/m³ CO₂e PPM VOC PPM PM1 μg/m³ PM2.5 μg/m³ PM4 μg/m³ PM10 μg/m³ TPS µm
Thursday 13 August 2026
09:08 Trim Patrick St 1 28.9 55 74,157 0.04 0 1.08 11.43 10.24 9.95 3.71 9.11 10.02
09:07 Trim Market St 2 29.4 53 56,963 0.06 0 1.14 12.08 0 0 0.71 3.33 3.9
09:07 Trim Patrick St 1 28.8 55 74,359 0.01 0 1.09 9.75 10.67 10.34 2.86 7.6 8.36
09:06 Trim Market St 2 29.3 54 57,168 0.08 0 1.17 13.58 2.84 0 0.71 3.32 4.63
09:06 Trim Patrick St 1 28.7 56 74,510 0.02 0 1.13 8.24 15.22 10.29 4.57 9.07 9.98
09:05 Trim Market St 2 29.3 54 57,277 0.07 0 1.13 13.42 22.08 0 1.43 3.31 4.64
09:05 Trim Patrick St 1 28.6 56 74,687 0.03 0 1.11 7.93 12.26 10.2 2 8.31 9.15
09:04 Trim Patrick St 1 28.5 56 74,786 0.03 0 1.18 11.42 25.2 10.89 3.71 8.27 9.1
09:03 Trim Market St 2 29.1 54 57,382 0.09 0 1.11 12.87 15.35 0 2.14 3.8 6.81
09:03 Trim Patrick St 1 28.4 56 74,876 0.05 0 1.25 10.39 17.69 9.55 2.86 7.52 8.28
09:02 Trim Market St 2 29 54 57,481 0.11 0 0.91 12.51 17.03 0 2.14 3.79 6.09
09:02 Trim Patrick St 1 28.3 57 74,962 0.04 0 1.28 9.18 16.41 9.71 2.86 6.71 7.39
09:01 Trim Patrick St 1 28.2 57 75,090 0.06 0 1.27 11.15 20.89 9.81 4.57 8.94 9.84
09:00 Trim Market St 2 28.7 55 57,612 0.4 0 0.88 11.42 17.02 0 2.14 4.78 6.81
09:00 Trim Patrick St 1 28.1 57 75,245 0.04 0 1.28 11.82 14.83 9.58 3.71 7.46 8.21
08:59 Trim Market St 2 28.6 55 57,658 0.1 0 0.87 11.53 19.2 0 1.43 3.76 4.67
08:58 Trim Market St 2 28.6 55 57,702 0.09 0 0.89 11.13 17.74 0 1.43 3.74 5.39
08:57 Trim Market St 2 28.4 56 57,714 0.11 0 0.92 11.98 20.07 0 2.14 3.72 4.68
08:57 Trim Patrick St 1 27.7 58 75,929 0.03 0 1.34 10.02 20.31 9.05 2.86 8.16 8.97
08:56 Trim Market St 2 28.3 56 57,728 0.11 0 0.87 12.25 21.54 0 2.85 4.72 6.82